Time;durP1;ratioP1;P1;durP2;ratioP2;P2;SDS_P1;SDS_P2;PMS_P1;PMS_P2;Temp;Humidity;BMP_temperature;BMP_pressure;BME280_temperature;BME280_humidity;BME280_pressure;Samples;Min_cycle;Max_cycle;Signal;HPM_P1;HPM_P2
2022/01/06 00:00:36;;;;;;;8.25;2.25;;;;;;;14.43;50.98;101390.31;5011939;28;20100;-65
2022/01/06 00:03:02;;;;;;;8.88;2.13;;;;;;;14.44;51.01;101384.28;5020734;28;20041;-64
2022/01/06 00:05:27;;;;;;;9.07;2.22;;;;;;;14.44;50.91;101391.22;5020800;28;20491;-65
2022/01/06 00:07:53;;;;;;;9.25;1.90;;;;;;;14.42;50.76;101391.19;5012707;28;20034;-64
2022/01/06 00:10:18;;;;;;;11.05;2.40;;;;;;;14.43;50.94;101398.09;5020613;28;20120;-64
2022/01/06 00:12:51;;;;;;;9.65;2.05;;;;;;;14.42;50.80;101401.56;5022891;28;20037;-65
2022/01/06 00:25:47;;;;;;;9.98;2.00;;;;;;;14.40;51.07;101398.03;5019835;28;20120;-65
2022/01/06 00:28:13;;;;;;;10.10;2.55;;;;;;;14.42;50.76;101408.44;5023434;28;20121;-65
2022/01/06 00:30:38;;;;;;;8.70;2.03;;;;;;;14.41;50.84;101402.41;5023777;28;20109;-66
2022/01/06 00:33:04;;;;;;;8.23;1.98;;;;;;;14.41;50.99;101405.00;5022034;28;20037;-65
2022/01/06 00:35:29;;;;;;;11.48;2.38;;;;;;;14.42;50.79;101411.03;5023869;28;20061;-65
2022/01/06 00:37:54;;;;;;;10.77;2.53;;;;;;;14.41;50.44;101412.78;5024943;28;20107;-65
2022/01/06 00:40:20;;;;;;;11.95;2.03;;;;;;;14.41;50.77;101415.38;5014744;28;20033;-65
2022/01/06 00:42:45;;;;;;;7.20;1.80;;;;;;;14.40;50.76;101418.78;5022212;28;20026;-65
2022/01/06 00:45:10;;;;;;;9.45;2.22;;;;;;;14.40;50.76;101423.13;5024071;28;20135;-66
2022/01/06 00:47:36;;;;;;;10.85;2.42;;;;;;;14.40;50.54;101426.56;5014410;28;20449;-64
2022/01/06 00:50:01;;;;;;;7.82;1.88;;;;;;;14.40;50.61;101433.50;5013225;28;20042;-64
2022/01/06 00:52:27;;;;;;;8.77;2.10;;;;;;;14.40;50.64;101423.97;5024206;28;20041;-64
2022/01/06 00:54:52;;;;;;;12.20;2.08;;;;;;;14.41;50.36;101435.22;5028371;28;20120;-65
2022/01/06 00:57:17;;;;;;;11.98;2.15;;;;;;;14.39;50.68;101421.34;5033062;28;20472;-66
2022/01/06 00:59:43;;;;;;;8.25;2.28;;;;;;;14.39;50.70;101421.34;5026976;28;20096;-65
2022/01/06 01:02:08;;;;;;;6.25;1.90;;;;;;;14.37;50.67;101429.09;5018497;28;20034;-65
2022/01/06 01:04:33;;;;;;;9.30;2.08;;;;;;;14.38;50.62;101422.19;5022888;28;20108;-65
2022/01/06 01:06:59;;;;;;;8.23;1.90;;;;;;;14.37;50.67;101426.50;5022946;28;20379;-65
2022/01/06 01:09:24;;;;;;;11.13;2.20;;;;;;;14.37;50.60;101426.50;5024140;28;20036;-65
2022/01/06 01:11:49;;;;;;;8.60;1.98;;;;;;;14.36;50.33;101429.03;5022065;28;20124;-64
2022/01/06 01:14:25;;;;;;;7.63;1.60;;;;;;;14.37;50.54;101434.28;5016814;28;20026;-65
2022/01/06 01:16:56;;;;;;;6.55;2.20;;;;;;;14.36;50.39;101436.81;5016738;28;20427;-64
2022/01/06 01:19:22;;;;;;;8.32;1.92;;;;;;;14.35;50.87;101415.22;5016803;28;20461;-64
2022/01/06 01:21:48;;;;;;;7.47;1.90;;;;;;;14.35;50.79;101430.78;5017004;28;20029;-64
2022/01/06 01:24:14;;;;;;;9.63;2.20;;;;;;;14.34;50.78;101429.00;5016757;28;20442;-64
2022/01/06 01:26:40;;;;;;;7.85;2.28;;;;;;;14.33;50.65;101432.44;5016887;28;20025;-65
2022/01/06 01:29:13;;;;;;;8.07;1.90;;;;;;;14.33;50.65;101432.44;5016709;28;20037;-65
2022/01/06 01:31:43;;;;;;;8.50;2.30;;;;;;;14.30;50.94;101433.25;5016565;28;20380;-64
2022/01/06 01:34:09;;;;;;;11.85;2.33;;;;;;;14.28;50.79;101444.41;5017154;28;20053;-65
2022/01/06 01:36:36;;;;;;;9.10;2.55;;;;;;;14.28;50.90;101439.22;5017351;28;20188;-65
2022/01/06 01:39:02;;;;;;;12.02;2.28;;;;;;;14.28;50.76;101450.50;5016992;28;20479;-65
2022/01/06 01:41:27;;;;;;;9.05;1.80;;;;;;;14.28;50.69;101444.41;5016939;28;20034;-65
2022/01/06 01:43:55;;;;;;;8.95;1.95;;;;;;;14.29;50.71;101446.19;5016514;28;20041;-65
2022/01/06 01:46:27;;;;;;;6.90;1.80;;;;;;;14.28;50.92;101449.59;5016332;28;20472;-64
2022/01/06 01:49:13;;;;;;;7.70;1.95;;;;;;;14.27;50.79;101458.25;5016697;28;20040;-65
2022/01/06 01:51:39;;;;;;;7.28;2.08;;;;;;;14.26;51.00;101472.03;5016382;28;20045;-65
2022/01/06 01:54:05;;;;;;;8.95;2.00;;;;;;;14.23;51.19;101477.13;5016718;28;20040;-65
2022/01/06 01:56:31;;;;;;;10.60;2.45;;;;;;;14.22;50.81;101475.41;5015267;28;20058;-64
2022/01/06 01:58:56;;;;;;;9.93;2.40;;;;;;;14.20;51.15;101483.13;5016191;28;20072;-65
2022/01/06 02:01:22;;;;;;;11.27;2.20;;;;;;;14.20;51.13;101487.44;5016544;28;20041;-65
2022/01/06 02:03:47;;;;;;;10.80;2.22;;;;;;;14.19;50.98;101480.50;5016537;28;20030;-65
2022/01/06 02:06:12;;;;;;;6.75;1.67;;;;;;;14.19;51.10;101496.94;5016479;28;20030;-65
2022/01/06 02:08:38;;;;;;;6.53;1.88;;;;;;;14.18;51.03;101497.78;5014761;28;20125;-64
2022/01/06 02:11:03;;;;;;;10.05;1.60;;;;;;;14.16;51.08;101497.75;5016385;28;20034;-65
2022/01/06 02:13:30;;;;;;;8.70;2.10;;;;;;;14.15;51.26;101490.81;5016043;28;20068;-64
2022/01/06 02:15:58;;;;;;;8.38;2.03;;;;;;;14.14;51.20;101499.41;5014916;28;20096;-64
2022/01/06 02:18:25;;;;;;;6.70;1.70;;;;;;;14.12;51.35;101495.88;5015757;28;20136;-64
2022/01/06 02:20:50;;;;;;;9.52;2.20;;;;;;;14.13;51.18;101508.03;5015549;28;20464;-65
2022/01/06 02:23:17;;;;;;;8.07;2.25;;;;;;;14.11;51.38;101499.34;5015918;28;20061;-65
2022/01/06 02:25:43;;;;;;;8.25;1.95;;;;;;;14.10;51.14;101507.06;5016102;28;20038;-64
2022/01/06 02:28:08;;;;;;;5.03;1.52;;;;;;;14.09;51.40;101506.19;5015619;28;20048;-64
2022/01/06 02:30:35;;;;;;;15.63;2.13;;;;;;;14.09;51.22;101501.00;5016059;28;20637;-64
2022/01/06 02:33:02;;;;;;;7.35;1.77;;;;;;;14.08;51.43;101504.44;5015871;28;20029;-64
2022/01/06 02:35:28;;;;;;;7.82;2.03;;;;;;;14.08;51.11;101506.16;5015763;28;20057;-64
2022/01/06 02:37:54;;;;;;;7.57;1.92;;;;;;;14.06;51.34;101506.13;5015657;28;20041;-64
2022/01/06 02:40:22;;;;;;;7.07;1.65;;;;;;;14.05;51.13;101509.56;5015599;28;20392;-64
2022/01/06 02:43:02;;;;;;;10.00;2.22;;;;;;;14.05;51.04;101509.56;5015359;28;20112;-64
2022/01/06 02:45:29;;;;;;;6.32;1.77;;;;;;;14.05;51.26;101503.50;5015816;28;20068;-64
2022/01/06 02:47:55;;;;;;;6.70;2.22;;;;;;;14.05;51.27;101509.56;5015828;28;20037;-65
2022/01/06 02:50:22;;;;;;;6.35;1.80;;;;;;;14.04;51.43;101500.00;5015439;28;20038;-64
2022/01/06 02:52:47;;;;;;;9.07;2.20;;;;;;;14.04;51.30;101501.75;5015473;28;20160;-65
2022/01/06 02:55:15;;;;;;;6.78;1.85;;;;;;;14.03;51.23;101500.84;5015311;28;20049;-65
2022/01/06 02:57:41;;;;;;;7.32;1.70;;;;;;;14.04;51.23;101504.34;5015510;28;20034;-64
2022/01/06 03:00:10;;;;;;;9.18;1.92;;;;;;;14.03;51.47;101500.84;5015322;28;20155;-65
2022/01/06 03:02:36;;;;;;;8.00;2.13;;;;;;;14.03;51.37;101510.34;5015350;28;20494;-65
2022/01/06 03:05:01;;;;;;;5.40;1.70;;;;;;;14.02;51.25;101503.41;5015520;28;20481;-65
2022/01/06 03:07:27;;;;;;;7.05;1.58;;;;;;;14.02;51.11;101509.47;5015395;28;20045;-64
2022/01/06 03:09:55;;;;;;;8.13;1.67;;;;;;;14.01;51.44;101510.31;5014998;28;20073;-64
2022/01/06 03:12:32;;;;;;;10.00;2.00;;;;;;;13.99;51.30;101506.78;5015140;28;20044;-64
2022/01/06 03:14:58;;;;;;;9.27;1.98;;;;;;;13.98;51.35;101508.53;5014950;28;20395;-65
2022/01/06 03:17:23;;;;;;;10.38;2.47;;;;;;;13.97;51.35;101517.13;5015293;28;20114;-65
2022/01/06 03:19:49;;;;;;;7.65;2.13;;;;;;;13.98;51.26;101523.16;5014720;28;20038;-65
2022/01/06 03:22:14;;;;;;;10.77;2.28;;;;;;;13.98;51.33;101528.34;5015073;28;20108;-63
2022/01/06 03:24:40;;;;;;;8.35;1.85;;;;;;;13.97;51.33;101529.22;5014510;28;20042;-64
2022/01/06 03:27:05;;;;;;;7.85;2.03;;;;;;;13.96;51.42;101525.72;5014997;28;20112;-64
2022/01/06 03:29:31;;;;;;;7.97;1.85;;;;;;;13.96;51.40;101535.22;5015143;28;20037;-64
2022/01/06 03:31:58;;;;;;;10.45;2.13;;;;;;;13.95;51.42;101534.34;5013825;28;20040;-64
2022/01/06 03:34:23;;;;;;;6.82;1.75;;;;;;;13.95;51.35;101538.66;5014846;28;20084;-64
2022/01/06 03:36:49;;;;;;;8.25;2.35;;;;;;;13.94;51.35;101542.97;5014879;28;20050;-64
2022/01/06 03:39:14;;;;;;;6.47;1.60;;;;;;;13.94;51.14;101537.78;5014325;28;20042;-64
2022/01/06 03:41:40;;;;;;;6.78;1.88;;;;;;;13.94;51.26;101536.88;5014675;28;20070;-65
2022/01/06 03:44:05;;;;;;;9.25;2.17;;;;;;;13.94;51.32;101536.88;4997265;28;20483;-64
2022/01/06 03:46:30;;;;;;;9.65;2.30;;;;;;;13.94;51.25;101539.47;4996914;28;20038;-63
2022/01/06 03:48:56;;;;;;;6.55;1.63;;;;;;;13.94;51.22;101534.31;4997078;28;20034;-64
2022/01/06 03:51:23;;;;;;;9.05;1.85;;;;;;;13.93;50.88;101525.66;5014816;28;20069;-64
2022/01/06 03:53:49;;;;;;;7.53;1.90;;;;;;;13.94;51.23;101534.31;5014315;28;20037;-64
2022/01/06 03:56:14;;;;;;;9.02;1.85;;;;;;;13.93;51.06;101538.63;5014491;28;20376;-65
2022/01/06 03:58:40;;;;;;;7.53;1.80;;;;;;;13.92;51.23;101529.09;4996975;28;20392;-65
2022/01/06 04:01:07;;;;;;;5.97;1.50;;;;;;;13.92;51.21;101536.84;5014242;28;20091;-65
2022/01/06 04:03:32;;;;;;;7.03;1.97;;;;;;;13.91;50.90;101532.50;5014348;28;20034;-64
2022/01/06 04:05:57;;;;;;;7.72;2.00;;;;;;;13.91;51.12;101531.63;5014009;28;20277;-64
2022/01/06 04:08:23;;;;;;;7.25;1.65;;;;;;;13.92;51.16;101533.41;5013846;28;20033;-63
2022/01/06 04:10:48;;;;;;;8.15;1.73;;;;;;;13.91;51.18;101536.81;5014229;28;20042;-64
2022/01/06 04:13:14;;;;;;;9.93;1.85;;;;;;;13.90;51.01;101532.47;5014191;28;20030;-65
2022/01/06 04:15:39;;;;;;;5.53;1.52;;;;;;;13.91;51.02;101531.63;5014098;28;20038;-65
2022/01/06 04:18:04;;;;;;;7.57;1.70;;;;;;;13.90;50.49;101541.09;5014099;28;20464;-65
2022/01/06 04:20:30;;;;;;;8.15;1.80;;;;;;;13.91;51.15;101544.59;5014247;28;20038;-64
2022/01/06 04:22:55;;;;;;;9.77;2.08;;;;;;;13.90;50.79;101553.19;5014011;28;20140;-63
2022/01/06 04:25:21;;;;;;;7.07;1.83;;;;;;;13.90;51.02;101558.38;5014001;28;20469;-65
2022/01/06 04:27:46;;;;;;;7.43;1.85;;;;;;;13.90;50.90;101560.97;5013898;28;20042;-65
2022/01/06 04:30:12;;;;;;;7.20;1.83;;;;;;;13.89;51.04;101560.09;5014046;28;20030;-65
2022/01/06 04:32:38;;;;;;;8.07;1.92;;;;;;;13.89;50.83;101559.22;5013690;28;20037;-65
2022/01/06 04:35:05;;;;;;;6.80;1.90;;;;;;;13.90;51.07;101563.56;5013838;28;20034;-65
2022/01/06 04:37:31;;;;;;;6.28;1.95;;;;;;;13.88;51.11;101557.44;5013998;28;20392;-64
2022/01/06 04:39:56;;;;;;;8.18;2.13;;;;;;;13.88;51.06;101563.53;5013525;28;20503;-65
2022/01/06 04:42:21;;;;;;;6.75;1.50;;;;;;;13.87;50.99;101560.91;5013826;28;20538;-65
2022/01/06 04:44:47;;;;;;;7.70;1.80;;;;;;;13.87;50.79;101563.50;5013575;28;20041;-65
2022/01/06 04:47:12;;;;;;;10.65;1.90;;;;;;;13.86;50.83;101565.19;5013576;28;20037;-65
2022/01/06 04:49:38;;;;;;;7.70;1.60;;;;;;;13.87;50.70;101576.44;5013842;28;20079;-65
2022/01/06 04:52:03;;;;;;;5.63;1.70;;;;;;;13.86;51.04;101580.72;5012492;28;20034;-65
2022/01/06 04:54:29;;;;;;;8.02;1.67;;;;;;;13.86;50.83;101580.72;5013370;28;20057;-64
2022/01/06 04:56:54;;;;;;;8.57;2.25;;;;;;;13.85;50.90;101576.38;5013721;28;20030;-65
2022/01/06 04:59:20;;;;;;;8.40;1.65;;;;;;;13.84;51.05;101577.25;5012417;28;20038;-65
2022/01/06 05:01:45;;;;;;;6.20;1.98;;;;;;;13.84;50.75;101579.84;5013729;28;20040;-65
2022/01/06 05:04:10;;;;;;;5.90;1.40;;;;;;;13.83;50.89;101581.53;5013972;28;20042;-65
2022/01/06 05:06:36;;;;;;;6.38;1.60;;;;;;;13.83;50.83;101575.47;5013699;28;20040;-65
2022/01/06 05:09:02;;;;;;;6.22;1.63;;;;;;;13.84;50.97;101597.97;5013399;28;20464;-64
2022/01/06 05:11:28;;;;;;;8.38;1.58;;;;;;;13.82;50.83;101587.53;5013620;28;20061;-65
2022/01/06 05:13:53;;;;;;;7.90;1.90;;;;;;;13.82;50.93;101591.84;5013583;28;20420;-65
2022/01/06 05:16:19;;;;;;;6.20;1.60;;;;;;;13.81;51.09;101598.75;5013971;28;20034;-65
2022/01/06 05:18:44;;;;;;;9.15;2.15;;;;;;;13.80;50.98;101599.59;5013379;28;20121;-65
2022/01/06 05:21:10;;;;;;;5.57;1.55;;;;;;;13.80;50.67;101602.19;5013581;28;20381;-65
2022/01/06 05:23:35;;;;;;;9.63;2.58;;;;;;;13.79;51.00;101602.16;5013121;28;20026;-64
2022/01/06 05:26:01;;;;;;;8.65;1.40;;;;;;;13.78;51.00;101609.03;5013239;28;20038;-65
2022/01/06 05:28:26;;;;;;;5.13;1.08;;;;;;;13.78;50.80;101601.25;5013454;28;20065;-65
2022/01/06 05:30:52;;;;;;;6.43;1.50;;;;;;;13.78;51.41;101614.19;5013402;28;20469;-65
2022/01/06 05:33:18;;;;;;;6.28;1.60;;;;;;;13.77;51.01;101608.97;5013321;28;20066;-65
2022/01/06 05:35:43;;;;;;;5.50;1.58;;;;;;;13.76;51.08;101613.31;5013629;28;20078;-65
2022/01/06 05:38:09;;;;;;;7.82;1.38;;;;;;;13.75;50.75;101619.31;5013091;28;20432;-64
2022/01/06 05:40:34;;;;;;;5.93;1.80;;;;;;;13.76;51.00;101621.06;5013325;28;20481;-65
2022/01/06 05:43:00;;;;;;;6.15;1.63;;;;;;;13.75;50.74;101624.50;5013580;28;20038;-64
2022/01/06 05:45:26;;;;;;;7.20;1.92;;;;;;;13.75;51.01;101624.50;5013342;28;20030;-64
2022/01/06 05:47:52;;;;;;;6.28;1.60;;;;;;;13.74;50.98;101625.31;5013183;28;20030;-64
2022/01/06 05:50:17;;;;;;;8.05;1.60;;;;;;;13.75;51.07;101633.94;5013259;28;20036;-64
2022/01/06 05:52:43;;;;;;;5.60;1.50;;;;;;;13.74;50.95;101627.91;5013073;28;20033;-64
2022/01/06 05:55:09;;;;;;;7.25;1.50;;;;;;;13.73;50.89;101631.31;5013610;28;20080;-65
2022/01/06 05:57:34;;;;;;;8.38;1.60;;;;;;;13.74;50.95;101633.09;5016439;28;20192;-64
2022/01/06 06:00:00;;;;;;;5.72;1.73;;;;;;;13.71;51.17;101633.00;5016702;28;20109;-64
2022/01/06 06:02:25;;;;;;;6.18;1.33;;;;;;;13.73;50.93;101648.59;5016164;28;20046;-64
2022/01/06 06:04:52;;;;;;;6.25;1.60;;;;;;;13.71;50.96;101638.19;5016574;28;20523;-64
2022/01/06 06:07:19;;;;;;;5.95;1.52;;;;;;;13.71;50.59;101643.38;5015333;28;20091;-65
2022/01/06 06:09:45;;;;;;;5.53;1.40;;;;;;;13.71;51.02;101653.72;5022907;28;20118;-63
2022/01/06 06:12:10;;;;;;;5.97;1.70;;;;;;;13.70;50.84;101644.19;5017889;28;20124;-64
2022/01/06 06:14:36;;;;;;;6.35;1.45;;;;;;;13.70;51.04;101646.78;5014620;28;20042;-63
2022/01/06 06:17:01;;;;;;;5.80;1.40;;;;;;;13.69;50.93;101652.78;5024064;28;20108;-63
2022/01/06 06:19:27;;;;;;;6.43;1.50;;;;;;;13.69;51.09;101657.97;5025939;28;20042;-64
2022/01/06 06:21:52;;;;;;;5.63;1.58;;;;;;;13.70;51.01;101666.63;5018464;28;20073;-64
2022/01/06 06:24:20;;;;;;;3.58;1.15;;;;;;;13.70;50.89;101670.09;5015935;28;20165;-63
2022/01/06 06:26:45;;;;;;;6.57;1.60;;;;;;;13.69;50.99;101665.75;5015995;28;20037;-64
2022/01/06 06:29:11;;;;;;;5.28;1.50;;;;;;;13.68;50.61;101668.31;5016039;28;20030;-64
2022/01/06 06:31:36;;;;;;;5.63;1.30;;;;;;;13.69;50.77;101667.47;5015898;28;20033;-64
2022/01/06 06:34:01;;;;;;;5.97;1.45;;;;;;;13.68;50.88;101668.31;5016134;28;20485;-64
2022/01/06 06:36:27;;;;;;;5.30;1.55;;;;;;;13.68;50.64;101676.94;5015893;28;20065;-64
2022/01/06 06:38:52;;;;;;;5.97;1.05;;;;;;;13.67;50.87;101677.75;5015423;28;20040;-64
2022/01/06 06:41:17;;;;;;;4.82;1.42;;;;;;;13.66;50.81;101678.63;5015749;28;20038;-65
2022/01/06 06:43:43;;;;;;;6.07;1.58;;;;;;;13.65;50.97;101672.53;5014340;28;20034;-63
2022/01/06 06:46:08;;;;;;;6.38;1.48;;;;;;;13.66;50.74;101681.22;5015719;28;20048;-65
2022/01/06 06:48:33;;;;;;;8.20;1.63;;;;;;;13.66;51.00;101678.63;5016067;28;20038;-65
2022/01/06 06:51:00;;;;;;;3.95;1.35;;;;;;;13.64;51.15;101682.88;5015345;28;20065;-63
2022/01/06 06:53:25;;;;;;;7.18;1.67;;;;;;;13.64;50.94;101688.91;5012504;28;20496;-63
2022/01/06 06:55:50;;;;;;;8.00;1.90;;;;;;;13.64;50.74;101691.50;5013143;28;20103;-64
2022/01/06 06:58:16;;;;;;;5.35;1.30;;;;;;;13.63;50.92;101694.06;5014156;28;20361;-64
2022/01/06 07:00:41;;;;;;;6.15;1.60;;;;;;;13.63;50.84;101694.94;5014243;28;20045;-63
2022/01/06 07:03:07;;;;;;;6.25;1.40;;;;;;;13.62;50.76;101694.88;5014605;28;20237;-63
2022/01/06 07:05:32;;;;;;;4.43;1.35;;;;;;;13.63;50.87;101705.31;5014713;28;20030;-63
2022/01/06 07:07:58;;;;;;;6.60;1.38;;;;;;;13.61;50.85;101701.78;5013701;28;20491;-64
2022/01/06 07:10:23;;;;;;;5.53;1.50;;;;;;;13.61;50.75;101704.38;5014926;28;20030;-64
2022/01/06 07:12:48;;;;;;;5.22;1.38;;;;;;;13.61;50.92;101706.97;5015542;28;20041;-64
2022/01/06 07:15:15;;;;;;;5.70;1.65;;;;;;;13.62;50.91;101710.41;5015291;28;20091;-63
2022/01/06 07:17:41;;;;;;;6.22;1.70;;;;;;;13.61;50.70;101714.72;5015022;28;20079;-64
2022/01/06 07:20:08;;;;;;;4.25;1.10;;;;;;;13.61;50.92;101719.03;5014994;28;20034;-64
2022/01/06 07:22:33;;;;;;;5.47;1.80;;;;;;;13.62;50.68;101728.56;5014967;28;20181;-64
2022/01/06 07:25:01;;;;;;;5.07;1.27;;;;;;;13.60;50.65;101733.69;5015004;28;20113;-64
2022/01/06 07:27:26;;;;;;;6.13;1.40;;;;;;;13.60;50.68;101735.41;5015302;28;20117;-64
2022/01/06 07:29:52;;;;;;;5.53;1.30;;;;;;;13.59;50.70;101733.66;5014915;28;20116;-64
2022/01/06 07:32:17;;;;;;;5.70;1.50;;;;;;;13.59;50.67;101741.41;5014587;28;20440;-64
2022/01/06 07:34:43;;;;;;;6.82;1.35;;;;;;;13.59;50.76;101737.09;5014362;28;20149;-64
2022/01/06 07:37:08;;;;;;;4.80;1.30;;;;;;;13.59;50.72;101741.41;5014876;28;20073;-64
2022/01/06 07:39:33;;;;;;;3.38;1.15;;;;;;;13.58;51.01;101745.72;5014262;28;20084;-64
2022/01/06 07:41:59;;;;;;;9.00;1.50;;;;;;;13.59;50.94;101749.19;5014371;28;20042;-64
2022/01/06 07:44:25;;;;;;;5.55;1.42;;;;;;;13.57;51.03;101746.56;5014802;28;20532;-64
2022/01/06 07:46:50;;;;;;;6.68;1.58;;;;;;;13.58;50.97;101739.66;5014796;28;20053;-64
2022/01/06 07:49:16;;;;;;;6.45;1.30;;;;;;;13.58;51.15;101739.66;5014479;28;20057;-64
2022/01/06 07:51:41;;;;;;;4.82;1.33;;;;;;;13.56;51.08;101737.03;4980508;28;20068;-64
2022/01/06 07:54:07;;;;;;;6.28;1.45;;;;;;;13.56;50.80;101739.59;5013699;28;20392;-64
2022/01/06 07:56:33;;;;;;;6.32;1.40;;;;;;;13.57;51.06;101737.88;5013801;28;20029;-64
2022/01/06 07:58:59;;;;;;;6.30;1.50;;;;;;;13.57;51.02;101745.66;5013740;28;20030;-64
2022/01/06 08:01:24;;;;;;;4.75;1.20;;;;;;;13.55;50.98;101745.63;5014443;28;20450;-64
2022/01/06 08:03:50;;;;;;;4.35;1.20;;;;;;;13.56;50.98;101754.28;5014211;28;20439;-64
2022/01/06 08:06:16;;;;;;;3.58;1.42;;;;;;;13.55;50.77;101750.78;5013054;28;20404;-63
2022/01/06 08:08:43;;;;;;;5.30;1.50;;;;;;;13.55;50.86;101750.78;5014048;28;20026;-63
2022/01/06 08:11:08;;;;;;;6.30;1.50;;;;;;;13.55;50.94;101744.75;5014203;28;20096;-64
2022/01/06 08:13:34;;;;;;;4.93;1.40;;;;;;;13.54;50.89;101754.22;5014084;28;20042;-64
2022/01/06 08:16:00;;;;;;;5.45;1.58;;;;;;;13.54;50.88;101758.53;5013651;28;20030;-64
2022/01/06 08:18:25;;;;;;;4.82;1.33;;;;;;;13.54;51.03;101755.94;5012872;28;20448;-63
2022/01/06 08:20:51;;;;;;;4.18;1.17;;;;;;;13.54;51.00;101758.53;5013559;28;20030;-64
2022/01/06 08:23:16;;;;;;;5.60;1.42;;;;;;;13.54;50.91;101761.09;5013172;28;20115;-64
2022/01/06 08:25:42;;;;;;;4.95;1.17;;;;;;;13.53;51.08;101764.53;5013740;28;20108;-64
2022/01/06 08:28:07;;;;;;;4.05;1.20;;;;;;;13.52;51.09;101758.47;5008651;28;20030;-64
2022/01/06 08:30:34;;;;;;;5.20;1.23;;;;;;;13.53;50.80;101767.13;5007408;28;20104;-64
2022/01/06 08:33:00;;;;;;;5.78;1.33;;;;;;;13.52;50.69;101766.25;5001910;28;20041;-64
2022/01/06 08:35:26;;;;;;;4.15;1.23;;;;;;;13.53;51.01;101767.13;5010113;28;20038;-64
2022/01/06 08:37:52;;;;;;;5.10;1.30;;;;;;;13.53;50.79;101772.28;5013571;28;20034;-65
2022/01/06 08:40:18;;;;;;;6.47;1.52;;;;;;;13.53;51.07;101772.28;5013092;28;20046;-64
2022/01/06 08:42:45;;;;;;;6.57;1.60;;;;;;;13.52;51.05;101774.03;5013442;28;20029;-64
2022/01/06 08:45:11;;;;;;;4.43;1.25;;;;;;;13.53;50.90;101772.28;5013074;28;20476;-64
2022/01/06 08:47:36;;;;;;;3.83;1.17;;;;;;;13.53;50.84;101774.88;5013770;28;20041;-65
2022/01/06 08:50:03;;;;;;;5.95;1.40;;;;;;;13.52;51.09;101773.13;5013803;28;20057;-65
2022/01/06 08:52:28;;;;;;;5.30;1.20;;;;;;;13.53;50.79;101782.66;5013225;28;20446;-64
2022/01/06 08:54:53;;;;;;;8.18;1.73;;;;;;;13.52;50.82;101780.88;5013244;28;20109;-64
2022/01/06 08:57:19;;;;;;;5.22;1.35;;;;;;;13.52;50.74;101780.88;4995865;28;20124;-64
2022/01/06 08:59:45;;;;;;;4.70;1.10;;;;;;;13.52;50.84;101786.06;5013459;28;20060;-65
2022/01/06 09:02:10;;;;;;;6.18;1.27;;;;;;;13.52;50.92;101783.47;5012833;28;20546;-64
2022/01/06 09:04:36;;;;;;;5.40;1.27;;;;;;;13.51;50.71;101785.19;5013230;28;20033;-64
2022/01/06 09:07:03;;;;;;;5.22;1.65;;;;;;;13.50;50.82;101797.28;5013626;28;20417;-65
2022/01/06 09:09:29;;;;;;;3.22;1.20;;;;;;;13.50;50.98;101797.28;5012788;28;20034;-64
2022/01/06 09:11:54;;;;;;;3.88;1.23;;;;;;;13.50;50.87;101791.22;5012340;28;20461;-65
2022/01/06 09:14:20;;;;;;;6.35;1.30;;;;;;;13.50;50.60;101793.78;5012809;28;20033;-64
2022/01/06 09:16:46;;;;;;;4.50;1.13;;;;;;;13.50;50.75;101797.28;5013275;28;20045;-64
2022/01/06 09:19:11;;;;;;;5.85;1.48;;;;;;;13.49;50.66;101794.63;5013483;28;20042;-65
2022/01/06 09:21:37;;;;;;;3.88;1.50;;;;;;;13.49;50.75;101803.28;5013663;28;20038;-65
2022/01/06 09:24:06;;;;;;;8.88;1.65;;;;;;;13.49;50.67;101804.97;5013416;28;20034;-64
2022/01/06 09:26:34;;;;;;;6.38;1.55;;;;;;;13.51;50.63;101808.50;5013572;28;20041;-66
2022/01/06 09:29:00;;;;;;;;;;;;;;;13.50;51.37;101805.06;5013875;28;20025;-64
2022/01/06 09:31:25;;;;;;;3.75;1.27;;;;;;;13.52;50.64;101811.97;5014710;28;20299;-64
2022/01/06 09:33:51;;;;;;;5.18;1.60;;;;;;;13.52;50.60;101811.97;4998600;28;20451;-65
2022/01/06 09:36:16;;;;;;;4.85;1.27;;;;;;;13.50;50.69;101811.91;5017442;28;20464;-66
2022/01/06 09:38:45;;;;;;;4.65;1.33;;;;;;;13.50;50.62;101818.00;5016898;28;20096;-64
2022/01/06 09:41:11;;;;;;;3.95;1.27;;;;;;;13.49;50.52;101824.00;5016983;28;20042;-66
2022/01/06 09:43:36;;;;;;;5.82;1.50;;;;;;;13.50;50.42;101828.38;5016947;28;20453;-65
2022/01/06 09:46:04;;;;;;;5.95;1.48;;;;;;;13.50;50.50;101828.38;4999218;28;20369;-65
2022/01/06 09:48:30;;;;;;;5.72;1.23;;;;;;;13.49;50.67;101829.19;5013862;28;20361;-65
2022/01/06 09:50:56;;;;;;;4.18;1.15;;;;;;;13.50;50.68;101830.06;5016886;28;20480;-65
2022/01/06 09:53:21;;;;;;;9.18;1.73;;;;;;;13.49;50.47;101828.28;5016322;28;20033;-64
2022/01/06 09:55:47;;;;;;;5.35;1.63;;;;;;;13.50;50.37;101836.13;5017011;28;20034;-65
2022/01/06 09:58:20;;;;;;;5.65;1.58;;;;;;;13.50;50.55;101837.81;5016940;28;20037;-65
2022/01/06 10:00:46;;;;;;;6.57;1.70;;;;;;;13.49;50.35;101824.00;5016551;28;20045;-66
2022/01/06 10:03:11;;;;;;;5.55;1.45;;;;;;;13.49;50.59;101824.00;5016661;28;20460;-66
2022/01/06 10:05:51;;;;;;;4.13;1.42;;;;;;;13.50;50.76;101830.06;5006951;28;20046;-65
2022/01/06 10:08:29;;;;;;;5.22;1.52;;;;;;;13.50;50.51;101835.22;5011513;28;20026;-65
2022/01/06 10:11:11;;;;;;;6.68;1.70;;;;;;;13.49;50.79;101829.19;5014635;28;20519;-64
2022/01/06 10:13:38;;;;;;;6.07;1.17;;;;;;;13.50;50.25;101827.47;5010441;28;20037;-65
2022/01/06 10:16:15;;;;;;;5.35;1.60;;;;;;;13.50;50.34;101828.38;4998229;28;20026;-66
2022/01/06 10:18:59;;;;;;;6.82;1.90;;;;;;;13.49;50.60;101830.88;5015984;28;20025;-66
2022/01/06 10:21:28;;;;;;;4.82;1.60;;;;;;;13.48;50.50;101819.66;5003711;28;20393;-66
2022/01/06 10:24:04;;;;;;;4.45;1.65;;;;;;;13.48;50.50;101830.00;5012605;28;20030;-67
2022/01/06 10:26:30;;;;;;;6.93;1.50;;;;;;;13.48;50.12;101819.66;5015985;28;20025;-66
2022/01/06 10:28:56;;;;;;;4.38;1.67;;;;;;;13.47;50.06;101820.47;5007677;28;20477;-67
2022/01/06 10:31:24;;;;;;;5.97;1.58;;;;;;;13.48;50.37;101822.22;5009439;28;20505;-66
2022/01/06 10:33:49;;;;;;;5.00;1.77;;;;;;;13.48;50.07;101821.38;5014779;28;20369;-67
2022/01/06 10:36:15;;;;;;;5.65;1.65;;;;;;;13.47;50.17;101817.88;5005188;28;20081;-67
2022/01/06 10:38:40;;;;;;;6.70;2.00;;;;;;;13.49;50.34;101813.66;5015755;28;20554;-67
2022/01/06 10:41:16;;;;;;;6.95;1.70;;;;;;;13.48;50.30;101817.06;5014351;28;20037;-67
2022/01/06 10:43:47;;;;;;;10.13;2.10;;;;;;;13.50;49.48;101817.09;5007458;28;20078;-67
2022/01/06 10:46:13;;;;;;;8.82;2.05;;;;;;;13.54;49.37;101818.09;5010106;28;20032;-67
2022/01/06 10:48:43;;;;;;;6.85;1.90;;;;;;;13.57;49.29;101816.50;5003595;28;20061;-66
2022/01/06 10:51:08;;;;;;;6.10;2.08;;;;;;;13.60;49.29;101815.72;5015552;28;20038;-67
2022/01/06 10:53:47;;;;;;;6.18;2.05;;;;;;;13.62;49.46;101819.22;5015166;28;20064;-66
2022/01/06 10:56:20;;;;;;;7.45;2.05;;;;;;;13.65;49.10;101816.75;4998952;28;20045;-67
2022/01/06 10:58:46;;;;;;;8.10;2.13;;;;;;;13.67;48.94;101815.06;5016418;28;20026;-66
2022/01/06 11:01:16;;;;;;;9.55;2.28;;;;;;;13.69;49.14;101818.59;5014383;28;20064;-66
2022/01/06 11:03:42;;;;;;;6.82;1.92;;;;;;;13.70;49.10;101806.50;5015239;28;20033;-67
2022/01/06 11:06:08;;;;;;;6.00;1.80;;;;;;;13.70;49.06;101807.41;5014376;28;20060;-67
2022/01/06 11:08:39;;;;;;;6.55;1.92;;;;;;;13.71;48.89;101809.16;5008522;28;20022;-65
2022/01/06 11:13:38;;;;;;;7.70;2.05;;;;;;;13.71;48.92;101809.16;5000447;28;20050;-66
2022/01/06 11:16:05;;;;;;;7.65;2.13;;;;;;;13.74;48.97;101804.06;5011502;28;20034;-66
2022/01/06 11:18:31;;;;;;;6.47;2.37;;;;;;;13.73;48.71;101804.91;5006367;28;20033;-66
2022/01/06 11:21:04;;;;;;;7.85;2.35;;;;;;;13.74;48.83;101804.06;5014798;28;20327;-65
2022/01/06 11:23:31;;;;;;;9.38;2.58;;;;;;;13.74;48.42;101798.91;5014979;28;20041;-66
2022/01/06 11:26:05;;;;;;;;;;;;;;;13.76;49.80;101799.84;5015298;28;20030;-66
2022/01/06 11:28:30;;;;;;;10.65;2.67;;;;;;;13.74;48.04;101801.47;5014329;28;19917;-65
2022/01/06 11:30:56;;;;;;;8.27;1.90;;;;;;;13.74;48.27;101792.84;5013445;28;20034;-66
2022/01/06 11:33:21;;;;;;;8.40;2.28;;;;;;;13.75;48.22;101800.66;5014164;28;20034;-66